sensor_id;sensor_type;location;lat;lon;timestamp;P1;durP1;ratioP1;P2;durP2;ratioP2
57093;SDS011;42970;50.996;3.706;2022-10-14T00:01:15;42.63;;;18.85;;
57093;SDS011;42970;50.996;3.706;2022-10-14T00:03:46;40.80;;;19.08;;
57093;SDS011;42970;50.996;3.706;2022-10-14T00:06:13;41.92;;;18.98;;
57093;SDS011;42970;50.996;3.706;2022-10-14T00:08:41;40.20;;;18.90;;
57093;SDS011;42970;50.996;3.706;2022-10-14T00:11:09;42.40;;;18.48;;
57093;SDS011;42970;50.996;3.706;2022-10-14T00:13:37;48.97;;;19.35;;
57093;SDS011;42970;50.996;3.706;2022-10-14T00:16:13;41.25;;;18.80;;
57093;SDS011;42970;50.996;3.706;2022-10-14T00:18:43;47.72;;;20.42;;
57093;SDS011;42970;50.996;3.706;2022-10-14T00:21:09;47.25;;;19.50;;
57093;SDS011;42970;50.996;3.706;2022-10-14T00:23:34;43.00;;;19.88;;
57093;SDS011;42970;50.996;3.706;2022-10-14T00:26:00;49.55;;;20.27;;
57093;SDS011;42970;50.996;3.706;2022-10-14T00:28:25;52.97;;;20.65;;
57093;SDS011;42970;50.996;3.706;2022-10-14T00:30:58;49.05;;;20.58;;
57093;SDS011;42970;50.996;3.706;2022-10-14T00:33:24;50.33;;;21.25;;
57093;SDS011;42970;50.996;3.706;2022-10-14T00:36:02;54.70;;;20.50;;
57093;SDS011;42970;50.996;3.706;2022-10-14T00:38:34;48.05;;;20.08;;
57093;SDS011;42970;50.996;3.706;2022-10-14T00:41:00;56.83;;;20.95;;
57093;SDS011;42970;50.996;3.706;2022-10-14T00:43:26;50.97;;;20.83;;
57093;SDS011;42970;50.996;3.706;2022-10-14T00:45:52;56.28;;;21.38;;
57093;SDS011;42970;50.996;3.706;2022-10-14T00:48:18;53.40;;;21.10;;
57093;SDS011;42970;50.996;3.706;2022-10-14T00:50:48;45.28;;;20.15;;
57093;SDS011;42970;50.996;3.706;2022-10-14T00:53:16;50.70;;;20.90;;
57093;SDS011;42970;50.996;3.706;2022-10-14T00:55:42;55.28;;;22.10;;
57093;SDS011;42970;50.996;3.706;2022-10-14T00:58:07;56.28;;;22.63;;
57093;SDS011;42970;50.996;3.706;2022-10-14T01:00:34;54.20;;;22.08;;
57093;SDS011;42970;50.996;3.706;2022-10-14T01:03:05;53.15;;;22.25;;
57093;SDS011;42970;50.996;3.706;2022-10-14T01:05:32;53.17;;;20.40;;
57093;SDS011;42970;50.996;3.706;2022-10-14T01:08:14;56.05;;;22.88;;
57093;SDS011;42970;50.996;3.706;2022-10-14T01:11:09;54.58;;;21.15;;
57093;SDS011;42970;50.996;3.706;2022-10-14T01:13:53;50.08;;;20.52;;
57093;SDS011;42970;50.996;3.706;2022-10-14T01:16:36;56.55;;;22.05;;
57093;SDS011;42970;50.996;3.706;2022-10-14T01:19:48;55.08;;;21.65;;
57093;SDS011;42970;50.996;3.706;2022-10-14T01:22:27;48.60;;;19.60;;
57093;SDS011;42970;50.996;3.706;2022-10-14T01:28:03;53.47;;;21.80;;
57093;SDS011;42970;50.996;3.706;2022-10-14T01:30:33;57.33;;;21.80;;
57093;SDS011;42970;50.996;3.706;2022-10-14T01:33:21;57.28;;;21.52;;
57093;SDS011;42970;50.996;3.706;2022-10-14T01:35:59;49.28;;;20.92;;
57093;SDS011;42970;50.996;3.706;2022-10-14T01:38:31;50.95;;;20.65;;
57093;SDS011;42970;50.996;3.706;2022-10-14T01:41:05;49.38;;;20.40;;
57093;SDS011;42970;50.996;3.706;2022-10-14T01:43:36;56.58;;;19.98;;
57093;SDS011;42970;50.996;3.706;2022-10-14T01:46:05;54.10;;;21.65;;
57093;SDS011;42970;50.996;3.706;2022-10-14T01:48:33;58.17;;;21.63;;
57093;SDS011;42970;50.996;3.706;2022-10-14T01:51:03;52.92;;;21.70;;
57093;SDS011;42970;50.996;3.706;2022-10-14T01:53:37;55.40;;;20.73;;
57093;SDS011;42970;50.996;3.706;2022-10-14T01:56:06;60.58;;;23.05;;
57093;SDS011;42970;50.996;3.706;2022-10-14T01:58:33;58.67;;;21.73;;
57093;SDS011;42970;50.996;3.706;2022-10-14T02:01:04;55.10;;;20.70;;
57093;SDS011;42970;50.996;3.706;2022-10-14T02:03:37;62.95;;;22.50;;
57093;SDS011;42970;50.996;3.706;2022-10-14T02:06:09;57.25;;;21.30;;
57093;SDS011;42970;50.996;3.706;2022-10-14T02:08:59;60.70;;;22.67;;
57093;SDS011;42970;50.996;3.706;2022-10-14T02:11:26;64.40;;;24.48;;
57093;SDS011;42970;50.996;3.706;2022-10-14T02:16:36;63.75;;;24.23;;
57093;SDS011;42970;50.996;3.706;2022-10-14T02:22:01;54.03;;;21.52;;
57093;SDS011;42970;50.996;3.706;2022-10-14T02:24:33;62.28;;;23.15;;
57093;SDS011;42970;50.996;3.706;2022-10-14T02:27:03;52.35;;;20.92;;
57093;SDS011;42970;50.996;3.706;2022-10-14T02:29:33;55.90;;;21.10;;
57093;SDS011;42970;50.996;3.706;2022-10-14T02:32:01;54.55;;;22.25;;
57093;SDS011;42970;50.996;3.706;2022-10-14T02:34:28;64.20;;;23.88;;
57093;SDS011;42970;50.996;3.706;2022-10-14T02:36:55;60.60;;;23.73;;
57093;SDS011;42970;50.996;3.706;2022-10-14T02:39:32;62.08;;;22.65;;
57093;SDS011;42970;50.996;3.706;2022-10-14T02:42:03;59.67;;;24.70;;
57093;SDS011;42970;50.996;3.706;2022-10-14T02:44:29;57.75;;;22.48;;
57093;SDS011;42970;50.996;3.706;2022-10-14T02:46:55;62.05;;;22.58;;
57093;SDS011;42970;50.996;3.706;2022-10-14T02:49:20;64.97;;;23.02;;
57093;SDS011;42970;50.996;3.706;2022-10-14T02:51:46;65.43;;;25.55;;
57093;SDS011;42970;50.996;3.706;2022-10-14T02:54:12;63.78;;;24.25;;
57093;SDS011;42970;50.996;3.706;2022-10-14T02:56:38;55.50;;;23.05;;
57093;SDS011;42970;50.996;3.706;2022-10-14T02:59:04;56.55;;;22.63;;
57093;SDS011;42970;50.996;3.706;2022-10-14T03:01:29;63.92;;;22.38;;
57093;SDS011;42970;50.996;3.706;2022-10-14T03:03:55;57.50;;;21.65;;
57093;SDS011;42970;50.996;3.706;2022-10-14T03:06:20;61.28;;;24.10;;
57093;SDS011;42970;50.996;3.706;2022-10-14T03:08:46;64.38;;;23.25;;
57093;SDS011;42970;50.996;3.706;2022-10-14T03:11:11;62.22;;;23.73;;
57093;SDS011;42970;50.996;3.706;2022-10-14T03:13:36;63.67;;;22.90;;
57093;SDS011;42970;50.996;3.706;2022-10-14T03:16:02;60.53;;;23.20;;
57093;SDS011;42970;50.996;3.706;2022-10-14T03:18:27;57.20;;;21.92;;
57093;SDS011;42970;50.996;3.706;2022-10-14T03:20:53;58.65;;;23.38;;
57093;SDS011;42970;50.996;3.706;2022-10-14T03:23:18;60.45;;;21.48;;
57093;SDS011;42970;50.996;3.706;2022-10-14T03:25:44;62.83;;;21.83;;
57093;SDS011;42970;50.996;3.706;2022-10-14T03:28:09;66.50;;;22.83;;
57093;SDS011;42970;50.996;3.706;2022-10-14T03:30:35;64.25;;;22.90;;
57093;SDS011;42970;50.996;3.706;2022-10-14T03:33:01;57.00;;;22.75;;
57093;SDS011;42970;50.996;3.706;2022-10-14T03:35:26;65.32;;;23.33;;
57093;SDS011;42970;50.996;3.706;2022-10-14T03:37:52;58.35;;;21.00;;
57093;SDS011;42970;50.996;3.706;2022-10-14T03:40:18;62.75;;;22.58;;
57093;SDS011;42970;50.996;3.706;2022-10-14T03:42:44;59.33;;;21.43;;
57093;SDS011;42970;50.996;3.706;2022-10-14T03:45:09;68.03;;;22.77;;
57093;SDS011;42970;50.996;3.706;2022-10-14T03:47:35;59.70;;;20.92;;
57093;SDS011;42970;50.996;3.706;2022-10-14T03:50:00;63.78;;;20.80;;
57093;SDS011;42970;50.996;3.706;2022-10-14T03:52:27;54.05;;;20.50;;
57093;SDS011;42970;50.996;3.706;2022-10-14T03:54:52;56.42;;;20.50;;
57093;SDS011;42970;50.996;3.706;2022-10-14T03:57:18;61.65;;;21.15;;
57093;SDS011;42970;50.996;3.706;2022-10-14T03:59:43;59.67;;;20.58;;
57093;SDS011;42970;50.996;3.706;2022-10-14T04:02:08;51.10;;;20.02;;
57093;SDS011;42970;50.996;3.706;2022-10-14T04:04:34;55.58;;;20.20;;
57093;SDS011;42970;50.996;3.706;2022-10-14T04:06:59;50.83;;;18.75;;
57093;SDS011;42970;50.996;3.706;2022-10-14T04:09:25;62.00;;;19.35;;
57093;SDS011;42970;50.996;3.706;2022-10-14T04:11:51;54.03;;;18.10;;
57093;SDS011;42970;50.996;3.706;2022-10-14T04:14:17;58.17;;;19.38;;
57093;SDS011;42970;50.996;3.706;2022-10-14T04:16:42;63.25;;;19.77;;
57093;SDS011;42970;50.996;3.706;2022-10-14T04:19:07;53.28;;;18.63;;
57093;SDS011;42970;50.996;3.706;2022-10-14T04:21:33;51.33;;;18.50;;
57093;SDS011;42970;50.996;3.706;2022-10-14T04:23:58;55.13;;;18.80;;
57093;SDS011;42970;50.996;3.706;2022-10-14T04:26:24;63.25;;;19.90;;
57093;SDS011;42970;50.996;3.706;2022-10-14T04:28:49;52.65;;;18.73;;
57093;SDS011;42970;50.996;3.706;2022-10-14T04:31:15;50.55;;;18.17;;
57093;SDS011;42970;50.996;3.706;2022-10-14T04:33:40;54.92;;;19.27;;
57093;SDS011;42970;50.996;3.706;2022-10-14T04:36:06;64.95;;;20.40;;
57093;SDS011;42970;50.996;3.706;2022-10-14T04:38:32;57.25;;;19.77;;
57093;SDS011;42970;50.996;3.706;2022-10-14T04:40:57;55.55;;;20.52;;
57093;SDS011;42970;50.996;3.706;2022-10-14T04:43:23;64.88;;;20.23;;
57093;SDS011;42970;50.996;3.706;2022-10-14T04:45:48;66.28;;;21.20;;
57093;SDS011;42970;50.996;3.706;2022-10-14T04:48:14;67.13;;;20.75;;
57093;SDS011;42970;50.996;3.706;2022-10-14T04:50:41;69.60;;;21.20;;
57093;SDS011;42970;50.996;3.706;2022-10-14T04:53:06;63.80;;;21.20;;
57093;SDS011;42970;50.996;3.706;2022-10-14T04:55:32;76.47;;;23.02;;
57093;SDS011;42970;50.996;3.706;2022-10-14T04:57:58;63.47;;;20.95;;
57093;SDS011;42970;50.996;3.706;2022-10-14T05:00:23;68.07;;;19.27;;
57093;SDS011;42970;50.996;3.706;2022-10-14T05:02:49;54.80;;;19.98;;
57093;SDS011;42970;50.996;3.706;2022-10-14T05:05:14;65.47;;;19.38;;
57093;SDS011;42970;50.996;3.706;2022-10-14T05:07:40;60.72;;;19.85;;
57093;SDS011;42970;50.996;3.706;2022-10-14T05:10:05;63.13;;;19.92;;
57093;SDS011;42970;50.996;3.706;2022-10-14T05:12:32;67.43;;;20.02;;
57093;SDS011;42970;50.996;3.706;2022-10-14T05:14:57;60.60;;;18.98;;
57093;SDS011;42970;50.996;3.706;2022-10-14T05:17:23;62.25;;;19.75;;
57093;SDS011;42970;50.996;3.706;2022-10-14T05:19:48;64.82;;;19.80;;
57093;SDS011;42970;50.996;3.706;2022-10-14T05:22:14;59.55;;;19.75;;
57093;SDS011;42970;50.996;3.706;2022-10-14T05:24:39;61.50;;;18.98;;
57093;SDS011;42970;50.996;3.706;2022-10-14T05:27:05;62.47;;;19.27;;
57093;SDS011;42970;50.996;3.706;2022-10-14T05:29:30;54.00;;;17.23;;
57093;SDS011;42970;50.996;3.706;2022-10-14T05:31:55;48.55;;;16.85;;
57093;SDS011;42970;50.996;3.706;2022-10-14T05:34:21;56.80;;;16.42;;
57093;SDS011;42970;50.996;3.706;2022-10-14T05:36:46;51.15;;;15.95;;
57093;SDS011;42970;50.996;3.706;2022-10-14T05:39:12;44.25;;;16.33;;
57093;SDS011;42970;50.996;3.706;2022-10-14T05:41:37;46.75;;;16.20;;
57093;SDS011;42970;50.996;3.706;2022-10-14T05:44:03;46.03;;;15.00;;
57093;SDS011;42970;50.996;3.706;2022-10-14T05:46:29;36.50;;;12.68;;
57093;SDS011;42970;50.996;3.706;2022-10-14T05:48:57;36.40;;;13.52;;
57093;SDS011;42970;50.996;3.706;2022-10-14T05:51:24;37.67;;;12.90;;
57093;SDS011;42970;50.996;3.706;2022-10-14T05:53:50;33.75;;;12.52;;
57093;SDS011;42970;50.996;3.706;2022-10-14T05:56:15;28.52;;;12.02;;
57093;SDS011;42970;50.996;3.706;2022-10-14T05:58:41;35.47;;;13.25;;
57093;SDS011;42970;50.996;3.706;2022-10-14T06:01:07;34.20;;;12.52;;
57093;SDS011;42970;50.996;3.706;2022-10-14T06:03:34;36.40;;;14.38;;
57093;SDS011;42970;50.996;3.706;2022-10-14T06:06:00;38.20;;;13.27;;
57093;SDS011;42970;50.996;3.706;2022-10-14T06:08:26;35.05;;;14.00;;
57093;SDS011;42970;50.996;3.706;2022-10-14T06:10:52;39.72;;;13.98;;
57093;SDS011;42970;50.996;3.706;2022-10-14T06:13:18;37.13;;;13.75;;
57093;SDS011;42970;50.996;3.706;2022-10-14T06:15:44;31.48;;;13.45;;
57093;SDS011;42970;50.996;3.706;2022-10-14T06:18:09;31.70;;;13.50;;
57093;SDS011;42970;50.996;3.706;2022-10-14T06:20:35;39.33;;;14.55;;
57093;SDS011;42970;50.996;3.706;2022-10-14T06:23:00;35.70;;;13.95;;
57093;SDS011;42970;50.996;3.706;2022-10-14T06:25:27;32.45;;;12.85;;
57093;SDS011;42970;50.996;3.706;2022-10-14T06:27:53;31.73;;;13.50;;
57093;SDS011;42970;50.996;3.706;2022-10-14T06:30:18;30.80;;;13.77;;
57093;SDS011;42970;50.996;3.706;2022-10-14T06:32:44;37.97;;;13.57;;
57093;SDS011;42970;50.996;3.706;2022-10-14T06:35:09;39.88;;;14.20;;
57093;SDS011;42970;50.996;3.706;2022-10-14T06:37:36;36.08;;;13.10;;
57093;SDS011;42970;50.996;3.706;2022-10-14T06:40:02;35.22;;;12.65;;
57093;SDS011;42970;50.996;3.706;2022-10-14T06:42:28;30.00;;;12.70;;
57093;SDS011;42970;50.996;3.706;2022-10-14T06:44:53;27.35;;;12.27;;
57093;SDS011;42970;50.996;3.706;2022-10-14T06:47:19;32.72;;;13.10;;
57093;SDS011;42970;50.996;3.706;2022-10-14T06:49:44;29.20;;;12.20;;
57093;SDS011;42970;50.996;3.706;2022-10-14T06:52:09;38.22;;;11.90;;
57093;SDS011;42970;50.996;3.706;2022-10-14T06:54:35;31.60;;;12.20;;
57093;SDS011;42970;50.996;3.706;2022-10-14T06:57:00;32.10;;;12.50;;
57093;SDS011;42970;50.996;3.706;2022-10-14T06:59:26;23.13;;;11.52;;
57093;SDS011;42970;50.996;3.706;2022-10-14T07:01:53;25.40;;;11.55;;
57093;SDS011;42970;50.996;3.706;2022-10-14T07:04:19;26.73;;;12.13;;
57093;SDS011;42970;50.996;3.706;2022-10-14T07:06:44;27.02;;;11.43;;
57093;SDS011;42970;50.996;3.706;2022-10-14T07:09:10;22.30;;;10.75;;
57093;SDS011;42970;50.996;3.706;2022-10-14T07:11:35;23.20;;;9.68;;
57093;SDS011;42970;50.996;3.706;2022-10-14T07:14:00;21.52;;;9.68;;
57093;SDS011;42970;50.996;3.706;2022-10-14T07:16:26;21.17;;;9.43;;
57093;SDS011;42970;50.996;3.706;2022-10-14T07:18:52;19.73;;;10.10;;
57093;SDS011;42970;50.996;3.706;2022-10-14T07:21:17;23.50;;;10.15;;
57093;SDS011;42970;50.996;3.706;2022-10-14T07:23:43;26.60;;;9.82;;
57093;SDS011;42970;50.996;3.706;2022-10-14T07:26:08;18.92;;;9.00;;
57093;SDS011;42970;50.996;3.706;2022-10-14T07:28:33;16.92;;;8.50;;
57093;SDS011;42970;50.996;3.706;2022-10-14T07:31:06;17.83;;;9.18;;
57093;SDS011;42970;50.996;3.706;2022-10-14T07:33:34;22.27;;;9.10;;
57093;SDS011;42970;50.996;3.706;2022-10-14T07:36:01;18.83;;;8.43;;
57093;SDS011;42970;50.996;3.706;2022-10-14T07:38:28;19.38;;;8.73;;
57093;SDS011;42970;50.996;3.706;2022-10-14T07:41:01;17.17;;;8.93;;
57093;SDS011;42970;50.996;3.706;2022-10-14T07:43:30;20.70;;;9.30;;
57093;SDS011;42970;50.996;3.706;2022-10-14T07:46:01;16.23;;;8.65;;
57093;SDS011;42970;50.996;3.706;2022-10-14T07:48:29;20.48;;;8.90;;
57093;SDS011;42970;50.996;3.706;2022-10-14T07:50:56;15.50;;;9.00;;
57093;SDS011;42970;50.996;3.706;2022-10-14T07:53:22;21.15;;;8.65;;
57093;SDS011;42970;50.996;3.706;2022-10-14T07:55:49;16.23;;;8.32;;
57093;SDS011;42970;50.996;3.706;2022-10-14T07:58:18;17.70;;;8.07;;
57093;SDS011;42970;50.996;3.706;2022-10-14T08:00:48;17.42;;;8.18;;
57093;SDS011;42970;50.996;3.706;2022-10-14T08:03:15;20.13;;;7.10;;
57093;SDS011;42970;50.996;3.706;2022-10-14T08:05:42;14.75;;;8.20;;
57093;SDS011;42970;50.996;3.706;2022-10-14T08:08:08;19.40;;;8.07;;
57093;SDS011;42970;50.996;3.706;2022-10-14T08:10:34;18.15;;;8.10;;
57093;SDS011;42970;50.996;3.706;2022-10-14T08:13:00;22.00;;;8.20;;
57093;SDS011;42970;50.996;3.706;2022-10-14T08:15:25;18.40;;;8.10;;
57093;SDS011;42970;50.996;3.706;2022-10-14T08:17:53;14.40;;;8.13;;
57093;SDS011;42970;50.996;3.706;2022-10-14T08:20:19;15.23;;;7.15;;
57093;SDS011;42970;50.996;3.706;2022-10-14T08:22:45;15.52;;;9.02;;
57093;SDS011;42970;50.996;3.706;2022-10-14T08:25:10;15.77;;;8.02;;
57093;SDS011;42970;50.996;3.706;2022-10-14T08:27:36;13.35;;;8.02;;
57093;SDS011;42970;50.996;3.706;2022-10-14T08:30:01;15.80;;;7.55;;
57093;SDS011;42970;50.996;3.706;2022-10-14T08:32:27;19.92;;;7.85;;
57093;SDS011;42970;50.996;3.706;2022-10-14T08:34:53;14.45;;;8.10;;
57093;SDS011;42970;50.996;3.706;2022-10-14T08:37:20;12.57;;;7.47;;
57093;SDS011;42970;50.996;3.706;2022-10-14T08:39:46;13.32;;;7.20;;
57093;SDS011;42970;50.996;3.706;2022-10-14T08:45:02;13.77;;;7.60;;
57093;SDS011;42970;50.996;3.706;2022-10-14T08:47:37;18.48;;;7.80;;
57093;SDS011;42970;50.996;3.706;2022-10-14T08:50:08;15.20;;;7.38;;
57093;SDS011;42970;50.996;3.706;2022-10-14T08:53:45;15.00;;;7.10;;
57093;SDS011;42970;50.996;3.706;2022-10-14T08:55:45;13.90;;;6.93;;
57093;SDS011;42970;50.996;3.706;2022-10-14T08:58:22;15.25;;;7.55;;
57093;SDS011;42970;50.996;3.706;2022-10-14T09:00:52;14.05;;;7.50;;
57093;SDS011;42970;50.996;3.706;2022-10-14T09:03:23;14.02;;;7.78;;
57093;SDS011;42970;50.996;3.706;2022-10-14T09:05:58;20.55;;;7.28;;
57093;SDS011;42970;50.996;3.706;2022-10-14T09:08:28;12.93;;;7.22;;
57093;SDS011;42970;50.996;3.706;2022-10-14T09:13:36;12.45;;;6.65;;
57093;SDS011;42970;50.996;3.706;2022-10-14T09:16:13;12.63;;;6.60;;
57093;SDS011;42970;50.996;3.706;2022-10-14T09:19:04;11.75;;;6.57;;
57093;SDS011;42970;50.996;3.706;2022-10-14T09:21:43;14.18;;;7.38;;
57093;SDS011;42970;50.996;3.706;2022-10-14T09:27:12;13.68;;;7.00;;
57093;SDS011;42970;50.996;3.706;2022-10-14T09:32:40;9.00;;;5.32;;
57093;SDS011;42970;50.996;3.706;2022-10-14T09:37:59;18.15;;;7.75;;
57093;SDS011;42970;50.996;3.706;2022-10-14T09:40:37;15.88;;;8.10;;
57093;SDS011;42970;50.996;3.706;2022-10-14T09:50:54;18.98;;;10.82;;
57093;SDS011;42970;50.996;3.706;2022-10-14T09:53:24;14.45;;;7.68;;
57093;SDS011;42970;50.996;3.706;2022-10-14T09:55:59;13.57;;;7.63;;
57093;SDS011;42970;50.996;3.706;2022-10-14T10:01:20;15.88;;;9.63;;
57093;SDS011;42970;50.996;3.706;2022-10-14T10:03:47;19.05;;;10.07;;
57093;SDS011;42970;50.996;3.706;2022-10-14T10:06:17;19.98;;;9.60;;
57093;SDS011;42970;50.996;3.706;2022-10-14T10:11:17;15.85;;;10.18;;
57093;SDS011;42970;50.996;3.706;2022-10-14T10:13:53;15.98;;;8.95;;
57093;SDS011;42970;50.996;3.706;2022-10-14T10:16:20;20.15;;;9.65;;
57093;SDS011;42970;50.996;3.706;2022-10-14T10:18:46;17.00;;;9.88;;
57093;SDS011;42970;50.996;3.706;2022-10-14T10:21:31;17.83;;;9.82;;
57093;SDS011;42970;50.996;3.706;2022-10-14T10:23:57;17.35;;;9.40;;
57093;SDS011;42970;50.996;3.706;2022-10-14T10:28:55;33.38;;;10.35;;
57093;SDS011;42970;50.996;3.706;2022-10-14T10:37:28;19.10;;;9.63;;
57093;SDS011;42970;50.996;3.706;2022-10-14T10:45:51;19.70;;;10.68;;
57093;SDS011;42970;50.996;3.706;2022-10-14T10:48:26;22.38;;;10.10;;
57093;SDS011;42970;50.996;3.706;2022-10-14T10:53:42;21.30;;;11.48;;
57093;SDS011;42970;50.996;3.706;2022-10-14T10:56:36;24.42;;;11.85;;
57093;SDS011;42970;50.996;3.706;2022-10-14T11:02:26;17.88;;;10.75;;
57093;SDS011;42970;50.996;3.706;2022-10-14T11:11:44;20.48;;;10.73;;
57093;SDS011;42970;50.996;3.706;2022-10-14T11:29:09;27.83;;;15.57;;
57093;SDS011;42970;50.996;3.706;2022-10-14T11:31:55;23.17;;;12.48;;
57093;SDS011;42970;50.996;3.706;2022-10-14T11:37:06;24.15;;;13.75;;
57093;SDS011;42970;50.996;3.706;2022-10-14T11:39:57;23.63;;;14.73;;
57093;SDS011;42970;50.996;3.706;2022-10-14T11:48:19;29.42;;;16.23;;
57093;SDS011;42970;50.996;3.706;2022-10-14T11:50:46;27.25;;;15.70;;
57093;SDS011;42970;50.996;3.706;2022-10-14T11:53:17;19.20;;;10.38;;
57093;SDS011;42970;50.996;3.706;2022-10-14T11:55:50;20.00;;;11.23;;
57093;SDS011;42970;50.996;3.706;2022-10-14T11:58:33;17.90;;;11.63;;
57093;SDS011;42970;50.996;3.706;2022-10-14T12:01:02;20.45;;;12.82;;
57093;SDS011;42970;50.996;3.706;2022-10-14T12:09:09;22.13;;;12.70;;
57093;SDS011;42970;50.996;3.706;2022-10-14T12:11:57;23.08;;;13.85;;
57093;SDS011;42970;50.996;3.706;2022-10-14T12:14:38;16.13;;;9.40;;
57093;SDS011;42970;50.996;3.706;2022-10-14T12:17:18;18.95;;;12.32;;
57093;SDS011;42970;50.996;3.706;2022-10-14T12:19:49;23.90;;;14.07;;
57093;SDS011;42970;50.996;3.706;2022-10-14T12:22:16;26.15;;;14.43;;
57093;SDS011;42970;50.996;3.706;2022-10-14T12:24:54;20.50;;;12.95;;
57093;SDS011;42970;50.996;3.706;2022-10-14T12:27:23;20.65;;;13.55;;
57093;SDS011;42970;50.996;3.706;2022-10-14T12:29:51;21.67;;;13.98;;
57093;SDS011;42970;50.996;3.706;2022-10-14T12:32:20;20.33;;;13.25;;
57093;SDS011;42970;50.996;3.706;2022-10-14T12:39:52;22.42;;;14.18;;
57093;SDS011;42970;50.996;3.706;2022-10-14T12:42:19;25.05;;;14.93;;
57093;SDS011;42970;50.996;3.706;2022-10-14T12:47:38;25.40;;;12.48;;
57093;SDS011;42970;50.996;3.706;2022-10-14T12:50:27;32.53;;;17.25;;
57093;SDS011;42970;50.996;3.706;2022-10-14T12:52:57;24.52;;;14.77;;
57093;SDS011;42970;50.996;3.706;2022-10-14T12:55:26;20.17;;;14.10;;
57093;SDS011;42970;50.996;3.706;2022-10-14T12:58:00;23.02;;;15.05;;
57093;SDS011;42970;50.996;3.706;2022-10-14T13:00:37;25.85;;;14.32;;
57093;SDS011;42970;50.996;3.706;2022-10-14T13:03:05;21.83;;;14.43;;
57093;SDS011;42970;50.996;3.706;2022-10-14T13:05:43;22.38;;;13.63;;
57093;SDS011;42970;50.996;3.706;2022-10-14T13:18:56;24.25;;;16.33;;
57093;SDS011;42970;50.996;3.706;2022-10-14T13:31:43;22.23;;;13.32;;
57093;SDS011;42970;50.996;3.706;2022-10-14T13:36:43;19.67;;;11.65;;
57093;SDS011;42970;50.996;3.706;2022-10-14T13:39:22;19.90;;;13.35;;
57093;SDS011;42970;50.996;3.706;2022-10-14T13:41:49;21.92;;;13.20;;
57093;SDS011;42970;50.996;3.706;2022-10-14T13:44:14;23.63;;;14.23;;
57093;SDS011;42970;50.996;3.706;2022-10-14T13:46:46;22.60;;;15.05;;
57093;SDS011;42970;50.996;3.706;2022-10-14T13:49:17;25.77;;;14.50;;
57093;SDS011;42970;50.996;3.706;2022-10-14T13:51:56;17.88;;;12.88;;
57093;SDS011;42970;50.996;3.706;2022-10-14T13:54:26;16.05;;;11.38;;
57093;SDS011;42970;50.996;3.706;2022-10-14T13:56:55;16.70;;;11.80;;
57093;SDS011;42970;50.996;3.706;2022-10-14T13:59:41;15.07;;;10.40;;
57093;SDS011;42970;50.996;3.706;2022-10-14T14:02:15;20.38;;;10.30;;
57093;SDS011;42970;50.996;3.706;2022-10-14T14:04:49;18.30;;;11.95;;
57093;SDS011;42970;50.996;3.706;2022-10-14T14:07:18;19.88;;;12.10;;
57093;SDS011;42970;50.996;3.706;2022-10-14T14:09:47;27.65;;;12.38;;
57093;SDS011;42970;50.996;3.706;2022-10-14T14:12:15;20.40;;;12.48;;
57093;SDS011;42970;50.996;3.706;2022-10-14T14:14:43;26.52;;;13.32;;
57093;SDS011;42970;50.996;3.706;2022-10-14T14:17:19;19.30;;;12.85;;
57093;SDS011;42970;50.996;3.706;2022-10-14T14:19:47;22.10;;;13.18;;
57093;SDS011;42970;50.996;3.706;2022-10-14T14:24:48;23.77;;;14.13;;
57093;SDS011;42970;50.996;3.706;2022-10-14T14:27:16;23.52;;;12.30;;
57093;SDS011;42970;50.996;3.706;2022-10-14T14:29:43;27.50;;;13.82;;
57093;SDS011;42970;50.996;3.706;2022-10-14T14:32:17;21.02;;;13.07;;
57093;SDS011;42970;50.996;3.706;2022-10-14T14:34:46;21.50;;;12.75;;
57093;SDS011;42970;50.996;3.706;2022-10-14T14:37:23;26.27;;;12.05;;
57093;SDS011;42970;50.996;3.706;2022-10-14T14:40:01;28.60;;;13.77;;
57093;SDS011;42970;50.996;3.706;2022-10-14T14:42:44;19.15;;;11.93;;
57093;SDS011;42970;50.996;3.706;2022-10-14T14:45:13;20.10;;;12.55;;
57093;SDS011;42970;50.996;3.706;2022-10-14T14:47:43;19.00;;;13.32;;
57093;SDS011;42970;50.996;3.706;2022-10-14T14:50:11;19.40;;;11.60;;
57093;SDS011;42970;50.996;3.706;2022-10-14T14:52:40;21.63;;;12.65;;
57093;SDS011;42970;50.996;3.706;2022-10-14T14:55:29;17.13;;;11.93;;
57093;SDS011;42970;50.996;3.706;2022-10-14T14:57:58;22.88;;;12.80;;
57093;SDS011;42970;50.996;3.706;2022-10-14T15:00:25;18.33;;;11.65;;
57093;SDS011;42970;50.996;3.706;2022-10-14T15:02:52;19.20;;;11.27;;
57093;SDS011;42970;50.996;3.706;2022-10-14T15:05:24;17.40;;;11.77;;
57093;SDS011;42970;50.996;3.706;2022-10-14T15:07:49;17.77;;;12.27;;
57093;SDS011;42970;50.996;3.706;2022-10-14T15:10:22;20.73;;;13.38;;
57093;SDS011;42970;50.996;3.706;2022-10-14T15:12:52;21.02;;;12.90;;
57093;SDS011;42970;50.996;3.706;2022-10-14T15:15:27;22.35;;;14.55;;
57093;SDS011;42970;50.996;3.706;2022-10-14T15:20:48;20.00;;;11.57;;
57093;SDS011;42970;50.996;3.706;2022-10-14T15:26:24;15.70;;;10.38;;
57093;SDS011;42970;50.996;3.706;2022-10-14T15:31:31;16.27;;;10.60;;
57093;SDS011;42970;50.996;3.706;2022-10-14T15:34:01;16.08;;;11.20;;
57093;SDS011;42970;50.996;3.706;2022-10-14T15:36:28;44.00;;;11.55;;
57093;SDS011;42970;50.996;3.706;2022-10-14T15:38:57;22.00;;;10.40;;
57093;SDS011;42970;50.996;3.706;2022-10-14T15:41:26;17.88;;;10.40;;
57093;SDS011;42970;50.996;3.706;2022-10-14T15:43:52;21.60;;;10.93;;
57093;SDS011;42970;50.996;3.706;2022-10-14T15:46:17;19.00;;;10.40;;
57093;SDS011;42970;50.996;3.706;2022-10-14T15:49:10;18.60;;;10.85;;
57093;SDS011;42970;50.996;3.706;2022-10-14T15:51:39;20.13;;;10.43;;
57093;SDS011;42970;50.996;3.706;2022-10-14T15:54:08;17.13;;;10.70;;
57093;SDS011;42970;50.996;3.706;2022-10-14T15:56:35;22.55;;;11.02;;
57093;SDS011;42970;50.996;3.706;2022-10-14T15:59:04;19.38;;;10.55;;
57093;SDS011;42970;50.996;3.706;2022-10-14T16:01:30;17.75;;;10.40;;
57093;SDS011;42970;50.996;3.706;2022-10-14T16:03:59;16.92;;;9.95;;
57093;SDS011;42970;50.996;3.706;2022-10-14T16:06:29;17.15;;;10.70;;
57093;SDS011;42970;50.996;3.706;2022-10-14T16:08:56;19.13;;;10.32;;
57093;SDS011;42970;50.996;3.706;2022-10-14T16:11:26;23.85;;;10.55;;
57093;SDS011;42970;50.996;3.706;2022-10-14T16:13:53;17.83;;;10.65;;
57093;SDS011;42970;50.996;3.706;2022-10-14T16:16:23;22.48;;;12.52;;
57093;SDS011;42970;50.996;3.706;2022-10-14T16:18:55;17.05;;;10.73;;
57093;SDS011;42970;50.996;3.706;2022-10-14T16:21:21;17.20;;;10.25;;
57093;SDS011;42970;50.996;3.706;2022-10-14T16:23:46;16.05;;;10.95;;
57093;SDS011;42970;50.996;3.706;2022-10-14T16:26:12;22.30;;;11.70;;
57093;SDS011;42970;50.996;3.706;2022-10-14T16:28:37;16.67;;;11.07;;
57093;SDS011;42970;50.996;3.706;2022-10-14T16:31:03;18.77;;;11.20;;
57093;SDS011;42970;50.996;3.706;2022-10-14T16:33:29;19.63;;;11.80;;
57093;SDS011;42970;50.996;3.706;2022-10-14T16:35:55;18.30;;;11.43;;
57093;SDS011;42970;50.996;3.706;2022-10-14T16:38:21;19.70;;;12.98;;
57093;SDS011;42970;50.996;3.706;2022-10-14T16:40:57;21.23;;;11.85;;
57093;SDS011;42970;50.996;3.706;2022-10-14T16:43:25;23.60;;;12.13;;
57093;SDS011;42970;50.996;3.706;2022-10-14T16:45:51;16.35;;;11.20;;
57093;SDS011;42970;50.996;3.706;2022-10-14T16:48:16;20.55;;;11.43;;
57093;SDS011;42970;50.996;3.706;2022-10-14T16:50:52;23.23;;;12.20;;